Aviation Digital Data Service (ADDS)

Output produced by METARs form (0838 UTC 28 August 2016)
found at http://aviationweather.gov/adds/metars/
 
KJHW 280606Z 2806/2906 20006KT P6SM BKN250 
     FM280800 18006KT P6SM BKN050 
     FM281400 21005KT P6SM VCSH BKN120 
     FM281600 23006KT P6SM VCTS SCT050CB BKN250 
     FM281800 25006KT 6SM -SHRA VCTS SCT050CB BKN090 
     FM282200 28005KT P6SM VCSH BKN070 
     FM290000 28004KT P6SM BKN090 
     FM290500 33005KT P6SM BKN060 AMD LTD TO CLD VIS AND WIND